VDSR Airport Information

Runway Information
Runway 05 Length 8366 ft width 148 ft
Elevation 51 ft Threshold 0 ft Heading 48
Runway 23 Length 8366 ft Width 148 ft
Elevation 60 ft Threshold 0 ft Heading 228
Airport Frequencies
Type APP Name APP Frequency 124.3 MHZ
Type ATIS Name ATIS Frequency 129.95 MHZ
Type TWR Name TWR Frequency 118.5 MHZ
Airport Navaids
Type NDB Name Siem Reap Frequency 441 KHZ
Type VOR-DME Name Siem Reap Frequency 113800 KHZ
Airport Weather Information & NOTAM
ADDS - METARS form results

(1327 UTC 24 January 2019)
Data provider http://aviationweather.gov/metar/data/
 
METAR text: VDSR 241300Z 00000KT 9000 FEW017 23/20 Q1012
Conditions at: VDSR (SIEMREAP , KH) observed 1300 UTC 24 January 2019
Temperature: 23.0°C (73°F)
Dewpoint: 20.0°C (68°F) [RH = 83%]
Pressure (altimeter): 29.88 inches Hg (1012.0 mb)
Winds: calm
Visibility: 6 miles ( 9 km)
Ceiling: at least 12,000 feet AGL
Clouds: few clouds at 1700 feet AGL
Weather: no significant weather observed at this time

METAR text: VDSR 241230Z 00000KT 9000 FEW017 24/19 Q1012
Conditions at: VDSR (SIEMREAP , KH) observed 1230 UTC 24 January 2019
Temperature: 24.0°C (75°F)
Dewpoint: 19.0°C (66°F) [RH = 74%]
Pressure (altimeter): 29.88 inches Hg (1012.0 mb)
Winds: calm
Visibility: 6 miles ( 9 km)
Ceiling: at least 12,000 feet AGL
Clouds: few clouds at 1700 feet AGL
Weather: no significant weather observed at this time

Forecast for: VDSR (SIEMREAP , KH)
Text: TAF VDSR 241100Z 2412/2506 31005KT 9999 SCT017
Forecast period: 1200 UTC 24 January 2019 to 0600 UTC 25 January 2019
Forecast type: FROM: standard forecast or significant change
Winds: from the NW (310 degrees) at 6 MPH (5 knots; 2.6 m/s)
Visibility: 6 or more miles 10+ km)
Ceiling: at least 12,000 feet AGL
Clouds: scattered clouds at 1700 feet AGL
Weather: no significant weather forecast for this period